Time;durP1;ratioP1;P1;durP2;ratioP2;P2;SDS_P1;SDS_P2;PMS_P1;PMS_P2;Temp;Humidity;BMP_temperature;BMP_pressure;BME280_temperature;BME280_humidity;BME280_pressure;Samples;Min_cycle;Max_cycle;Signal;HPM_P1;HPM_P2
2022/10/16 00:00:46;;;;;;;4.70;1.27;;;14.50;99.90;;;;;;5054099;28;20281;-82
2022/10/16 00:03:13;;;;;;;4.18;1.10;;;14.50;99.90;;;;;;5054442;28;20290;-84
2022/10/16 00:05:41;;;;;;;2.47;0.98;;;14.40;99.90;;;;;;5068127;28;20197;-84
2022/10/16 00:08:08;;;;;;;2.97;1.20;;;14.40;99.90;;;;;;5073673;28;20205;-81
2022/10/16 00:10:36;;;;;;;2.60;0.80;;;14.40;99.90;;;;;;5074122;28;20201;-82
2022/10/16 00:13:04;;;;;;;5.78;1.20;;;14.40;99.90;;;;;;5074115;28;20213;-83
2022/10/16 00:15:33;;;;;;;4.95;1.17;;;14.40;99.90;;;;;;5071041;28;20216;-83
2022/10/16 00:18:00;;;;;;;3.90;1.10;;;14.40;99.90;;;;;;5053452;28;20190;-84
2022/10/16 00:20:27;;;;;;;4.80;0.90;;;14.50;99.90;;;;;;5053601;28;20281;-84
2022/10/16 00:22:54;;;;;;;2.63;1.00;;;14.50;99.90;;;;;;5053651;28;20200;-83
2022/10/16 00:25:21;;;;;;;2.50;1.00;;;14.50;99.90;;;;;;5054138;28;20190;-82
2022/10/16 00:27:48;;;;;;;1.67;0.82;;;14.50;99.90;;;;;;5053398;28;20272;-83
2022/10/16 00:30:16;;;;;;;2.65;1.10;;;14.50;99.90;;;;;;5053710;28;20611;-83
2022/10/16 00:32:43;;;;;;;2.38;0.90;;;14.60;99.90;;;;;;5053805;28;20222;-80
2022/10/16 00:35:10;;;;;;;3.87;1.30;;;14.60;99.90;;;;;;5053315;28;20217;-81
2022/10/16 00:37:37;;;;;;;2.77;0.90;;;14.60;99.90;;;;;;5053385;28;20276;-81
2022/10/16 00:40:04;;;;;;;3.40;1.50;;;14.60;99.90;;;;;;5053813;28;20189;-84
2022/10/16 00:42:31;;;;;;;4.63;1.30;;;14.60;99.90;;;;;;5053190;28;20198;-81
2022/10/16 00:44:59;;;;;;;1.48;0.98;;;14.60;99.90;;;;;;5058664;28;20252;-80
2022/10/16 00:47:31;;;;;;;5.30;1.33;;;14.50;99.90;;;;;;5072858;28;20204;-81
2022/10/16 00:50:05;;;;;;;3.13;1.00;;;14.60;99.90;;;;;;5072591;28;20540;-81
2022/10/16 00:52:32;;;;;;;4.80;1.20;;;14.60;99.90;;;;;;5071722;28;20244;-81
2022/10/16 00:55:00;;;;;;;2.83;1.05;;;14.60;99.90;;;;;;5072044;28;20216;-79
2022/10/16 00:57:27;;;;;;;4.28;1.00;;;14.60;99.90;;;;;;5053680;28;20198;-79
2022/10/16 00:59:54;;;;;;;2.03;1.15;;;14.60;99.90;;;;;;5051994;28;20280;-79
2022/10/16 01:02:21;;;;;;;5.22;1.05;;;14.50;99.90;;;;;;5051891;28;20194;-80
2022/10/16 01:04:52;;;;;;;3.70;1.30;;;14.50;99.90;;;;;;5051395;28;20197;-79
2022/10/16 01:07:31;;;;;;;5.13;1.40;;;14.60;99.90;;;;;;5052394;28;20190;-80
2022/10/16 01:10:07;;;;;;;2.77;1.20;;;14.50;99.90;;;;;;5051331;28;20281;-78
2022/10/16 01:12:40;;;;;;;2.23;1.00;;;14.50;99.90;;;;;;5051990;28;20260;-78
2022/10/16 01:15:15;;;;;;;6.22;1.35;;;14.50;99.90;;;;;;5051769;28;20190;-79
2022/10/16 01:17:46;;;;;;;3.85;1.27;;;14.60;99.90;;;;;;5069676;28;20693;-78
2022/10/16 01:20:22;;;;;;;4.70;1.00;;;14.50;99.90;;;;;;5071712;28;20205;-78
2022/10/16 01:23:09;;;;;;;2.30;1.10;;;14.60;99.90;;;;;;5075397;28;20189;-77
2022/10/16 01:26:05;;;;;;;3.33;0.90;;;14.50;99.90;;;;;;5065473;28;20272;-79
2022/10/16 01:28:39;;;;;;;2.65;0.93;;;14.50;99.90;;;;;;5055196;28;20641;-78
2022/10/16 01:31:06;;;;;;;2.00;0.90;;;14.50;99.90;;;;;;5054589;28;20198;-78
2022/10/16 01:33:40;;;;;;;5.97;1.37;;;14.40;99.90;;;;;;5055563;28;20312;-77
2022/10/16 01:36:12;;;;;;;4.88;1.20;;;14.40;99.90;;;;;;5055472;28;20212;-79
2022/10/16 01:38:40;;;;;;;2.95;1.00;;;14.30;99.90;;;;;;5054903;28;20277;-79
2022/10/16 01:41:10;;;;;;;4.63;1.40;;;14.30;99.90;;;;;;5055924;28;20293;-79
2022/10/16 01:43:43;;;;;;;5.70;1.23;;;14.40;99.90;;;;;;5055396;28;20189;-79
2022/10/16 01:46:14;;;;;;;4.43;1.23;;;14.30;99.90;;;;;;5055042;28;20221;-79
2022/10/16 01:48:41;;;;;;;4.40;1.27;;;14.30;99.90;;;;;;5055497;28;20614;-78
2022/10/16 01:51:11;;;;;;;7.13;1.70;;;14.30;99.90;;;;;;5054527;28;20194;-79
2022/10/16 01:53:39;;;;;;;5.20;1.43;;;14.30;99.90;;;;;;5055841;28;20217;-82
2022/10/16 01:56:10;;;;;;;9.50;1.48;;;14.30;99.90;;;;;;5055751;28;20230;-82
2022/10/16 01:58:45;;;;;;;6.63;1.33;;;14.30;99.90;;;;;;5056175;28;20185;-82
2022/10/16 02:01:13;;;;;;;4.50;1.20;;;14.30;99.90;;;;;;5055846;28;20624;-82
2022/10/16 02:03:43;;;;;;;3.10;1.10;;;14.30;99.90;;;;;;5056140;28;20204;-83
2022/10/16 02:06:10;;;;;;;3.22;1.10;;;14.30;99.90;;;;;;5055719;28;20296;-81
2022/10/16 02:08:38;;;;;;;3.33;1.03;;;14.30;99.90;;;;;;5055992;28;20202;-80
2022/10/16 02:11:05;;;;;;;3.60;1.20;;;14.40;99.90;;;;;;5055846;28;20268;-81
2022/10/16 02:13:37;;;;;;;3.38;0.98;;;14.30;99.90;;;;;;5055559;28;20253;-85
2022/10/16 02:16:07;;;;;;;2.60;0.87;;;14.30;99.90;;;;;;5055956;28;20218;-83
2022/10/16 02:18:34;;;;;;;3.67;0.77;;;14.30;99.90;;;;;;5055654;28;20221;-82
2022/10/16 02:21:05;;;;;;;3.07;1.13;;;14.30;99.90;;;;;;5055605;28;20202;-83
2022/10/16 02:23:42;;;;;;;3.05;1.10;;;14.30;99.90;;;;;;5055758;28;20661;-79
2022/10/16 02:26:16;;;;;;;2.33;0.95;;;14.30;99.90;;;;;;5055939;28;20281;-81
2022/10/16 02:28:46;;;;;;;2.35;0.98;;;14.30;99.90;;;;;;5055823;28;20236;-81
2022/10/16 02:31:21;;;;;;;3.50;1.10;;;14.20;99.90;;;;;;5055492;28;20190;-82
2022/10/16 02:33:48;;;;;;;3.00;1.00;;;14.20;99.90;;;;;;5055138;28;20217;-80
2022/10/16 02:36:15;;;;;;;4.20;1.30;;;14.20;99.90;;;;;;5055516;28;20295;-82
2022/10/16 02:38:42;;;;;;;4.13;1.38;;;14.10;99.90;;;;;;5055424;28;20208;-80
2022/10/16 02:41:10;;;;;;;2.70;0.87;;;14.10;99.90;;;;;;5055567;28;20226;-80
2022/10/16 02:43:37;;;;;;;3.23;1.23;;;14.10;99.90;;;;;;5054892;28;20186;-81
2022/10/16 02:46:04;;;;;;;4.27;1.03;;;14.10;99.90;;;;;;5055403;28;20602;-82
2022/10/16 02:48:32;;;;;;;2.37;1.00;;;14.10;99.90;;;;;;5054771;28;20205;-80
2022/10/16 02:50:59;;;;;;;4.50;1.48;;;14.20;99.90;;;;;;5054905;28;20214;-83
2022/10/16 02:53:26;;;;;;;1.88;1.10;;;14.20;99.90;;;;;;5054536;28;20218;-81
2022/10/16 02:55:53;;;;;;;4.73;0.93;;;14.20;99.90;;;;;;5054814;28;20218;-79
2022/10/16 02:58:19;;;;;;;1.83;1.10;;;14.20;99.90;;;;;;5055405;28;20289;-82
2022/10/16 03:00:46;;;;;;;5.27;1.27;;;14.20;99.90;;;;;;5054920;28;20502;-81
2022/10/16 03:03:13;;;;;;;3.50;1.20;;;14.20;99.90;;;;;;5054964;28;20193;-80
2022/10/16 03:05:45;;;;;;;3.25;0.95;;;14.20;99.90;;;;;;5054146;28;20281;-78
2022/10/16 03:08:12;;;;;;;4.53;1.50;;;14.20;99.90;;;;;;5054757;28;20312;-80
2022/10/16 03:10:41;;;;;;;4.47;1.67;;;14.20;99.90;;;;;;5053413;28;20598;-81
2022/10/16 03:13:08;;;;;;;4.87;1.30;;;14.20;99.90;;;;;;5054293;28;20224;-84
2022/10/16 03:15:35;;;;;;;3.60;1.27;;;14.20;99.90;;;;;;5054833;28;20194;-81
2022/10/16 03:18:02;;;;;;;2.87;1.27;;;14.30;99.90;;;;;;5054487;28;20198;-81
2022/10/16 03:20:29;;;;;;;3.40;1.30;;;14.30;99.90;;;;;;5056752;28;20200;-82
2022/10/16 03:22:57;;;;;;;2.07;1.10;;;14.20;99.90;;;;;;5075201;28;20873;-86
2022/10/16 03:25:24;;;;;;;6.10;1.20;;;14.20;99.90;;;;;;5073633;28;20593;-82
2022/10/16 03:27:51;;;;;;;5.63;1.33;;;14.10;99.90;;;;;;5074827;28;20315;-82
2022/10/16 03:30:18;;;;;;;7.05;1.40;;;14.10;99.90;;;;;;5063691;28;20209;-83
2022/10/16 03:32:45;;;;;;;6.32;1.65;;;14.10;99.90;;;;;;5054484;28;20202;-82
2022/10/16 03:35:13;;;;;;;4.53;1.38;;;14.10;99.90;;;;;;5054986;28;20222;-82
2022/10/16 03:37:40;;;;;;;5.17;1.63;;;14.10;99.90;;;;;;5055241;28;20202;-78
2022/10/16 03:40:09;;;;;;;4.57;2.13;;;14.10;99.90;;;;;;5055490;28;20204;-83
2022/10/16 03:42:36;;;;;;;4.90;1.60;;;14.10;99.90;;;;;;5055202;28;20509;-82
2022/10/16 03:45:04;;;;;;;5.30;1.60;;;14.00;99.90;;;;;;5053436;28;20288;-78
2022/10/16 03:47:32;;;;;;;4.45;1.58;;;14.00;99.90;;;;;;5054609;28;20206;-83
2022/10/16 03:49:59;;;;;;;6.57;1.65;;;14.00;99.90;;;;;;5054165;28;20288;-85
2022/10/16 03:52:26;;;;;;;4.47;1.65;;;13.90;99.90;;;;;;5054269;28;20213;-82
2022/10/16 03:54:53;;;;;;;6.18;1.60;;;13.90;99.90;;;;;;5054788;28;20228;-83
2022/10/16 03:57:21;;;;;;;3.30;1.60;;;13.90;99.90;;;;;;5054675;28;20230;-85
2022/10/16 03:59:48;;;;;;;3.03;1.60;;;13.90;99.90;;;;;;5054973;28;20186;-85
2022/10/16 04:02:15;;;;;;;3.15;1.50;;;13.90;99.90;;;;;;5072716;28;20293;-81
2022/10/16 04:04:42;;;;;;;7.78;1.52;;;13.80;99.90;;;;;;5075089;28;20194;-81
2022/10/16 04:07:09;;;;;;;8.70;2.90;;;13.80;99.90;;;;;;5056786;28;20491;-84
2022/10/16 04:09:36;;;;;;;6.27;2.27;;;13.90;99.90;;;;;;5072801;28;20284;-78
2022/10/16 04:12:03;;;;;;;6.53;1.90;;;13.90;99.90;;;;;;5074633;28;20598;-81
2022/10/16 04:14:31;;;;;;;6.70;2.00;;;13.80;99.90;;;;;;5073636;28;20229;-80
2022/10/16 04:16:58;;;;;;;7.83;2.23;;;13.80;99.90;;;;;;5065171;28;20662;-81
2022/10/16 04:19:25;;;;;;;8.90;2.80;;;13.80;99.90;;;;;;5052821;28;20282;-79
2022/10/16 04:21:52;;;;;;;9.70;2.53;;;13.80;99.90;;;;;;5053144;28;20198;-80
2022/10/16 04:24:18;;;;;;;14.67;2.70;;;13.80;99.90;;;;;;5053455;28;20544;-78
2022/10/16 04:26:45;;;;;;;8.13;2.75;;;13.90;99.90;;;;;;5052301;28;20267;-80
2022/10/16 04:29:12;;;;;;;8.38;1.85;;;13.90;99.90;;;;;;5051489;28;20633;-77
2022/10/16 04:31:40;;;;;;;8.93;2.10;;;13.80;99.90;;;;;;5052381;28;20198;-78
2022/10/16 04:34:07;;;;;;;12.30;2.90;;;13.80;99.90;;;;;;5051411;28;20217;-77
2022/10/16 04:38:59;;;;;;;12.27;2.17;;;13.80;99.90;;;;;;5097170;22;20224;-78
2022/10/16 04:41:26;;;;;;;7.68;2.00;;;13.70;99.90;;;;;;5071578;28;20205;-79
2022/10/16 04:43:53;;;;;;;6.80;1.90;;;13.70;99.90;;;;;;5072087;28;20247;-77
2022/10/16 04:46:20;;;;;;;9.68;2.20;;;13.70;99.90;;;;;;5072325;28;20542;-76
2022/10/16 04:48:48;;;;;;;14.73;2.78;;;13.70;99.90;;;;;;5071248;28;20668;-79
2022/10/16 04:51:15;;;;;;;8.38;1.98;;;13.70;99.90;;;;;;5072214;28;20213;-78
2022/10/16 04:53:42;;;;;;;12.85;3.15;;;13.70;99.90;;;;;;5071686;28;20232;-78
2022/10/16 04:56:09;;;;;;;13.23;2.90;;;13.70;99.90;;;;;;5071039;28;20315;-77
2022/10/16 04:58:36;;;;;;;9.93;2.53;;;13.80;99.90;;;;;;5072049;28;20545;-84
2022/10/16 05:01:03;;;;;;;10.40;2.60;;;13.90;99.90;;;;;;5083796;28;20200;-86
2022/10/16 05:03:29;;;;;;;12.35;2.38;;;13.90;99.90;;;;;;5092640;28;20215;-78
2022/10/16 05:05:58;;;;;;;10.00;2.73;;;13.90;99.90;;;;;;5092152;28;20205;-84
2022/10/16 05:08:24;;;;;;;8.83;2.20;;;13.90;99.90;;;;;;5089109;28;20296;-81
2022/10/16 05:10:51;;;;;;;10.30;2.30;;;14.00;99.90;;;;;;5073509;28;20565;-85
2022/10/16 05:13:18;;;;;;;8.07;2.67;;;14.00;99.90;;;;;;5087603;28;20196;-84
2022/10/16 05:15:49;;;;;;;12.07;2.60;;;14.00;99.90;;;;;;5088679;28;20200;-81
2022/10/16 05:18:16;;;;;;;16.13;2.47;;;14.00;99.90;;;;;;5071613;28;20267;-84
2022/10/16 05:20:43;;;;;;;10.83;2.93;;;14.00;99.90;;;;;;5086352;28;20749;-83
2022/10/16 05:23:11;;;;;;;9.20;2.57;;;14.00;99.90;;;;;;5094187;28;20299;-79
2022/10/16 05:25:38;;;;;;;9.57;2.00;;;13.90;99.90;;;;;;5093972;28;20696;-81
2022/10/16 05:28:05;;;;;;;10.40;2.27;;;14.00;99.90;;;;;;5094743;28;20295;-80
2022/10/16 05:30:32;;;;;;;7.13;1.90;;;14.00;99.90;;;;;;5092749;28;20230;-84
2022/10/16 05:32:59;;;;;;;9.63;1.83;;;14.00;99.90;;;;;;5093581;28;20262;-82
2022/10/16 05:35:26;;;;;;;7.97;1.90;;;14.00;99.90;;;;;;5080576;28;20228;-83
2022/10/16 05:37:53;;;;;;;8.17;1.70;;;13.90;99.90;;;;;;5073187;28;20248;-81
2022/10/16 05:40:22;;;;;;;9.82;2.15;;;13.90;99.90;;;;;;5073399;28;20293;-84
2022/10/16 05:42:48;;;;;;;5.13;1.80;;;13.80;99.90;;;;;;5073547;28;20193;-82
2022/10/16 05:45:15;;;;;;;6.22;1.60;;;13.80;99.90;;;;;;5074100;28;20292;-85
2022/10/16 05:47:42;;;;;;;5.73;1.40;;;13.80;99.90;;;;;;5074204;28;20289;-84
2022/10/16 05:50:09;;;;;;;6.23;2.03;;;13.80;99.90;;;;;;5073957;28;20205;-86
2022/10/16 05:52:36;;;;;;;8.47;2.43;;;13.80;99.90;;;;;;5073597;28;20212;-83
2022/10/16 05:55:03;;;;;;;6.77;1.77;;;13.80;99.90;;;;;;5073546;28;20215;-86
2022/10/16 05:57:31;;;;;;;7.10;2.50;;;13.80;99.90;;;;;;5074170;28;20201;-82
2022/10/16 05:59:58;;;;;;;9.30;2.57;;;13.80;99.90;;;;;;5090204;28;20700;-84
2022/10/16 06:02:25;;;;;;;4.80;2.23;;;13.70;99.90;;;;;;5094643;28;20269;-84
2022/10/16 06:04:53;;;;;;;9.20;2.20;;;13.70;99.90;;;;;;5094217;28;20193;-82
2022/10/16 06:07:20;;;;;;;4.90;2.30;;;13.70;99.90;;;;;;5080969;28;20205;-87
2022/10/16 06:09:49;;;;;;;10.03;2.13;;;13.70;99.90;;;;;;5085882;28;20197;-82
2022/10/16 06:12:16;;;;;;;6.83;1.87;;;13.70;99.90;;;;;;5093264;28;20279;-85
2022/10/16 06:14:46;;;;;;;6.70;1.80;;;13.70;99.90;;;;;;5094483;28;20299;-83
2022/10/16 06:17:13;;;;;;;7.20;2.00;;;13.70;99.90;;;;;;5077094;28;20205;-84
2022/10/16 06:19:40;;;;;;;7.07;2.03;;;13.70;99.90;;;;;;5078516;28;20692;-84
2022/10/16 06:22:07;;;;;;;6.60;2.17;;;13.60;99.90;;;;;;5097085;28;20201;-83
2022/10/16 06:24:34;;;;;;;4.93;1.37;;;13.60;99.90;;;;;;5097617;28;20292;-85
2022/10/16 06:27:01;;;;;;;7.63;2.53;;;13.60;99.90;;;;;;5096528;28;20211;-83
2022/10/16 06:29:28;;;;;;;11.63;1.97;;;13.60;99.90;;;;;;5094968;28;20275;-86
2022/10/16 06:31:56;;;;;;;4.53;1.73;;;13.50;99.90;;;;;;5096980;28;20192;-85
2022/10/16 06:34:23;;;;;;;7.47;1.63;;;13.50;99.90;;;;;;5097006;28;20215;-84
2022/10/16 06:36:50;;;;;;;7.53;2.00;;;13.50;99.90;;;;;;5094704;28;20788;-83
2022/10/16 06:39:17;;;;;;;7.23;2.07;;;13.60;99.90;;;;;;5077193;28;20553;-84
2022/10/16 06:41:43;;;;;;;7.70;2.27;;;13.50;99.90;;;;;;5075902;28;20563;-85
2022/10/16 06:44:10;;;;;;;5.90;1.70;;;13.50;99.90;;;;;;5077811;28;20203;-81
2022/10/16 06:46:40;;;;;;;8.70;2.33;;;13.50;99.90;;;;;;5091106;28;20288;-83
2022/10/16 06:49:09;;;;;;;11.23;3.00;;;13.50;99.90;;;;;;5090882;28;20216;-81
2022/10/16 06:51:40;;;;;;;8.73;2.60;;;13.50;99.90;;;;;;5095809;28;20292;-82
2022/10/16 06:54:07;;;;;;;11.13;2.97;;;13.50;99.90;;;;;;5094944;28;20232;-82
2022/10/16 06:56:34;;;;;;;11.77;2.47;;;13.60;99.90;;;;;;5092853;28;20311;-81
2022/10/16 06:59:02;;;;;;;9.83;2.30;;;13.60;99.90;;;;;;5095250;28;20838;-81
2022/10/16 07:01:30;;;;;;;12.13;2.63;;;13.60;99.90;;;;;;5088878;28;20204;-82
2022/10/16 07:03:57;;;;;;;10.67;2.20;;;13.60;99.90;;;;;;5090019;28;20216;-79
2022/10/16 07:06:26;;;;;;;11.10;2.50;;;13.60;99.90;;;;;;5092970;28;20291;-84
2022/10/16 07:08:54;;;;;;;10.03;2.50;;;13.60;99.90;;;;;;5094357;28;20207;-83
2022/10/16 07:11:22;;;;;;;8.00;2.47;;;13.70;99.90;;;;;;5095237;28;20296;-86
2022/10/16 07:13:50;;;;;;;15.10;3.70;;;13.70;99.90;;;;;;5095435;28;20200;-84
2022/10/16 07:16:19;;;;;;;13.93;2.63;;;13.70;99.90;;;;;;5088315;28;20244;-80
2022/10/16 07:18:48;;;;;;;14.57;2.40;;;13.70;99.90;;;;;;5094571;28;20520;-84
2022/10/16 07:21:17;;;;;;;10.70;2.50;;;13.80;99.90;;;;;;5088914;28;20205;-86
2022/10/16 07:23:45;;;;;;;15.43;3.33;;;13.90;99.90;;;;;;5092829;28;20292;-79
2022/10/16 07:26:12;;;;;;;14.97;3.10;;;13.90;99.90;;;;;;5090229;28;20698;-86
2022/10/16 07:28:40;;;;;;;10.90;2.30;;;14.00;99.90;;;;;;5086691;28;20200;-83
2022/10/16 07:31:10;;;;;;;15.23;3.00;;;13.90;99.90;;;;;;5088875;28;20558;-82
2022/10/16 07:33:38;;;;;;;22.07;4.63;;;13.90;99.90;;;;;;5093654;28;20287;-86
2022/10/16 07:36:06;;;;;;;18.45;3.83;;;14.00;99.90;;;;;;5093013;28;20220;-81
2022/10/16 07:38:33;;;;;;;18.83;4.53;;;14.10;99.90;;;;;;5091726;28;20239;-88
2022/10/16 07:41:03;;;;;;;25.17;4.30;;;14.20;99.90;;;;;;5095426;28;20295;-86
2022/10/16 07:43:30;;;;;;;18.70;3.60;;;14.20;99.90;;;;;;5092121;28;20228;-85
2022/10/16 07:45:57;;;;;;;18.97;3.80;;;14.30;99.90;;;;;;5095000;28;20205;-84
2022/10/16 07:48:27;;;;;;;24.05;5.35;;;14.30;99.90;;;;;;5095356;28;20291;-86
2022/10/16 07:50:57;;;;;;;22.00;4.80;;;14.30;99.90;;;;;;5088051;28;20210;-83
2022/10/16 07:53:24;;;;;;;20.93;4.70;;;14.40;99.90;;;;;;5088628;28;20193;-87
2022/10/16 07:55:51;;;;;;;28.02;4.93;;;14.50;99.90;;;;;;5092429;28;20626;-84
2022/10/16 07:58:19;;;;;;;20.67;5.00;;;14.60;99.90;;;;;;5092789;28;20196;-87
2022/10/16 08:00:46;;;;;;;23.13;4.43;;;14.60;99.90;;;;;;5093636;28;20211;-79
2022/10/16 08:03:13;;;;;;;18.60;4.45;;;14.70;99.90;;;;;;5094136;28;20200;-86
2022/10/16 08:05:39;;;;;;;18.27;3.22;;;14.70;99.90;;;;;;5088495;28;20288;-83
2022/10/16 08:08:06;;;;;;;15.48;3.10;;;14.50;99.90;;;;;;5093410;28;20295;-83
2022/10/16 08:10:33;;;;;;;23.77;3.70;;;14.40;99.90;;;;;;5094407;28;20199;-76
2022/10/16 08:13:00;;;;;;;14.80;4.10;;;14.40;99.90;;;;;;5080874;28;20230;-79
2022/10/16 08:15:28;;;;;;;17.35;4.00;;;14.50;99.90;;;;;;5092776;28;20303;-81
2022/10/16 08:17:57;;;;;;;12.20;3.40;;;14.50;99.90;;;;;;5089698;28;20775;-78
2022/10/16 08:20:24;;;;;;;14.30;3.38;;;14.50;99.90;;;;;;5091737;28;20279;-84
2022/10/16 08:22:51;;;;;;;13.27;3.05;;;14.60;99.90;;;;;;5091897;28;20196;-77
2022/10/16 08:25:20;;;;;;;17.60;3.15;;;14.70;99.90;;;;;;5085305;28;20228;-77
2022/10/16 08:27:46;;;;;;;22.60;3.47;;;14.70;99.90;;;;;;5092416;28;20205;-77
2022/10/16 08:30:14;;;;;;;21.00;4.53;;;14.80;99.90;;;;;;5078519;28;20471;-78
2022/10/16 08:32:42;;;;;;;26.38;4.40;;;14.80;99.90;;;;;;5090610;28;20205;-78
2022/10/16 08:35:10;;;;;;;18.53;3.33;;;14.80;99.90;;;;;;5091070;28;20228;-78
2022/10/16 08:37:37;;;;;;;19.58;3.47;;;14.80;99.90;;;;;;5085411;28;20228;-77
2022/10/16 08:40:05;;;;;;;18.08;4.35;;;14.80;99.90;;;;;;5089387;28;20193;-76
2022/10/16 08:42:49;;;;;;;19.80;5.27;;;14.90;99.90;;;;;;5081350;28;20280;-78
2022/10/16 08:45:43;;;;;;;22.23;4.60;;;14.90;99.90;;;;;;5082516;28;20204;-77
2022/10/16 08:48:20;;;;;;;15.73;4.38;;;14.90;99.90;;;;;;5091476;28;20200;-77
2022/10/16 08:50:49;;;;;;;12.30;3.70;;;14.90;99.90;;;;;;5088044;28;20291;-78
2022/10/16 08:53:20;;;;;;;18.48;4.75;;;15.00;99.90;;;;;;5092215;28;20212;-77
2022/10/16 08:55:50;;;;;;;16.88;4.80;;;15.00;99.90;;;;;;5091299;28;20655;-76
2022/10/16 08:58:18;;;;;;;18.02;4.50;;;15.10;99.90;;;;;;5085824;28;20644;-76
2022/10/16 09:00:51;;;;;;;20.45;5.25;;;15.10;99.90;;;;;;5092555;28;20208;-83
2022/10/16 09:03:32;;;;;;;15.68;4.07;;;15.20;99.90;;;;;;5086882;28;20205;-77
2022/10/16 09:06:14;;;;;;;27.33;5.43;;;15.30;99.90;;;;;;5082813;28;20200;-80
2022/10/16 09:08:50;;;;;;;20.85;4.78;;;15.20;99.90;;;;;;5091842;28;20196;-83
2022/10/16 09:11:27;;;;;;;12.30;3.40;;;15.30;99.90;;;;;;5077684;28;20214;-80
2022/10/16 09:14:03;;;;;;;16.45;3.78;;;15.30;99.90;;;;;;5088384;28;20208;-76
2022/10/16 09:16:36;;;;;;;17.37;3.87;;;15.40;99.90;;;;;;5089517;28;20319;-80
2022/10/16 09:19:14;;;;;;;14.60;3.72;;;15.40;99.90;;;;;;5078244;28;20189;-77
2022/10/16 09:21:43;;;;;;;18.65;4.35;;;15.40;99.90;;;;;;5090811;28;20197;-79
2022/10/16 09:24:15;;;;;;;14.50;4.60;;;15.50;99.90;;;;;;5082845;28;20197;-81
2022/10/16 09:26:41;;;;;;;17.05;4.53;;;15.40;99.90;;;;;;5084902;28;20196;-83
2022/10/16 09:29:12;;;;;;;15.70;4.33;;;15.50;99.90;;;;;;5091682;28;20208;-80
2022/10/16 09:31:39;;;;;;;16.38;3.60;;;15.50;99.90;;;;;;5086806;28;20283;-81
2022/10/16 09:34:18;;;;;;;18.27;3.80;;;15.60;99.90;;;;;;5091370;28;20291;-82
2022/10/16 09:36:47;;;;;;;17.52;3.20;;;15.70;99.90;;;;;;5092961;28;20638;-79
2022/10/16 09:39:13;;;;;;;15.18;3.63;;;15.80;99.90;;;;;;5092730;28;20241;-77
2022/10/16 09:41:43;;;;;;;15.13;2.90;;;15.90;99.90;;;;;;5093729;28;20204;-88
2022/10/16 09:44:21;;;;;;;13.30;2.53;;;16.00;99.90;;;;;;5091450;28;20626;-84
2022/10/16 09:46:48;;;;;;;11.88;2.63;;;16.00;99.90;;;;;;5097532;28;20215;-84
2022/10/16 09:49:25;;;;;;;13.55;2.40;;;16.10;99.90;;;;;;5096572;28;20793;-78
2022/10/16 09:52:03;;;;;;;10.88;2.80;;;16.10;99.90;;;;;;5092576;28;20668;-84
2022/10/16 09:54:30;;;;;;;12.73;2.78;;;16.20;99.90;;;;;;5083267;28;20207;-83
2022/10/16 09:57:06;;;;;;;11.57;2.50;;;16.30;99.90;;;;;;5096692;28;20228;-83
2022/10/16 09:59:33;;;;;;;10.45;2.58;;;16.30;99.90;;;;;;5094945;28;20506;-91
2022/10/16 10:02:04;;;;;;;8.98;2.30;;;16.30;99.90;;;;;;5088872;28;20227;-81
2022/10/16 10:04:42;;;;;;;13.48;3.05;;;16.40;99.90;;;;;;5091260;28;20505;-83
2022/10/16 10:07:19;;;;;;;12.95;3.22;;;16.50;99.90;;;;;;5097610;28;20295;-82
2022/10/16 10:09:47;;;;;;;12.50;3.53;;;16.50;99.90;;;;;;5082498;28;20212;-84
2022/10/16 10:12:23;;;;;;;14.77;3.97;;;16.60;99.90;;;;;;5087739;28;20197;-87
2022/10/16 10:14:51;;;;;;;13.43;4.13;;;16.70;99.90;;;;;;5094173;28;20192;-83
2022/10/16 10:17:20;;;;;;;16.55;3.67;;;16.80;99.90;;;;;;5097126;28;20214;-86
2022/10/16 10:19:54;;;;;;;13.82;3.20;;;16.80;99.90;;;;;;5096314;28;20275;-86
2022/10/16 10:22:27;;;;;;;13.15;3.15;;;16.80;99.90;;;;;;5091919;28;20291;-86
2022/10/16 10:25:12;;;;;;;10.93;3.53;;;16.80;99.90;;;;;;5096955;28;20208;-86
2022/10/16 10:27:49;;;;;;;13.95;3.28;;;16.70;99.90;;;;;;5092373;28;20295;-83
2022/10/16 10:30:21;;;;;;;13.00;3.45;;;16.80;99.90;;;;;;5095017;28;20520;-86
2022/10/16 10:33:01;;;;;;;15.75;3.50;;;16.80;99.90;;;;;;5090426;28;20213;-83
2022/10/16 10:35:40;;;;;;;16.40;4.10;;;16.90;99.90;;;;;;5086814;28;20222;-83
2022/10/16 10:38:22;;;;;;;12.95;4.05;;;16.90;99.90;;;;;;5096441;28;20254;-82
2022/10/16 10:40:55;;;;;;;19.63;4.72;;;17.00;99.90;;;;;;5092538;28;20220;-84
2022/10/16 10:43:39;;;;;;;14.07;3.90;;;17.20;99.90;;;;;;5081921;28;20276;-82
2022/10/16 10:46:10;;;;;;;13.05;3.30;;;17.30;99.90;;;;;;5094169;28;20197;-83
2022/10/16 10:48:55;;;;;;;12.25;2.97;;;17.50;99.90;;;;;;5090029;28;20193;-86
2022/10/16 10:51:29;;;;;;;13.90;3.05;;;17.60;99.90;;;;;;5091196;28;20631;-83
2022/10/16 10:54:05;;;;;;;10.52;2.42;;;17.70;99.90;;;;;;5096047;28;20184;-83
2022/10/16 10:56:45;;;;;;;15.38;2.72;;;17.70;95.30;;;;;;5091508;28;20659;-86
2022/10/16 10:59:37;;;;;;;12.82;2.42;;;17.80;99.90;;;;;;5093405;28;20197;-84
2022/10/16 11:02:14;;;;;;;8.48;2.58;;;17.90;91.70;;;;;;5094850;28;20656;-82
2022/10/16 11:04:55;;;;;;;10.65;3.08;;;18.00;92.10;;;;;;5092751;28;20277;-84
2022/10/16 11:07:28;;;;;;;10.18;2.72;;;18.10;72.70;;;;;;5094955;28;20205;-81
2022/10/16 11:10:00;;;;;;;17.48;3.42;;;18.20;28.70;;;;;;5081379;28;20188;-82
2022/10/16 11:12:31;;;;;;;10.73;3.10;;;18.20;1.00;;;;;;5095644;28;20201;-85
2022/10/16 11:15:03;;;;;;;10.75;3.20;;;18.30;1.00;;;;;;5095184;28;20216;-84
2022/10/16 11:17:35;;;;;;;10.95;2.75;;;18.40;1.00;;;;;;5095503;28;20231;-82
2022/10/16 11:20:12;;;;;;;17.30;3.42;;;18.50;1.00;;;;;;5087429;28;20208;-82
2022/10/16 11:22:46;;;;;;;11.95;2.80;;;18.60;1.00;;;;;;5095306;28;20579;-80
2022/10/16 11:25:17;;;;;;;12.10;2.08;;;18.60;1.00;;;;;;5085523;28;20263;-82
2022/10/16 11:27:49;;;;;;;10.57;2.58;;;18.60;1.00;;;;;;5094128;28;20205;-81
2022/10/16 11:30:22;;;;;;;11.25;2.30;;;18.70;1.00;;;;;;5080454;28;20533;-82
2022/10/16 11:33:01;;;;;;;13.00;2.83;;;18.80;1.00;;;;;;5087244;28;20192;-83
2022/10/16 11:35:39;;;;;;;15.00;2.47;;;18.80;1.00;;;;;;5084737;28;20396;-82
2022/10/16 11:38:15;;;;;;;9.35;2.05;;;18.80;1.00;;;;;;5092750;28;20235;-78
2022/10/16 11:40:47;;;;;;;7.22;2.55;;;18.80;1.00;;;;;;5091311;28;20197;-78
2022/10/16 11:43:20;;;;;;;12.45;2.83;;;18.70;1.00;;;;;;5089544;28;20226;-78
2022/10/16 11:45:52;;;;;;;9.82;3.05;;;18.60;1.00;;;;;;5093271;28;20223;-80
2022/10/16 11:48:26;;;;;;;12.60;2.80;;;18.60;1.00;;;;;;5081659;28;20299;-78
2022/10/16 11:50:55;;;;;;;12.02;2.38;;;18.40;1.00;;;;;;5084905;28;20204;-84
2022/10/16 11:53:35;;;;;;;9.88;2.97;;;18.30;1.00;;;;;;5080272;28;20680;-82
2022/10/16 11:56:02;;;;;;;13.43;2.47;;;18.00;1.00;;;;;;5091655;28;20228;-80
2022/10/16 11:58:35;;;;;;;12.05;2.78;;;17.90;1.00;;;;;;5087613;28;20199;-85
2022/10/16 12:01:17;;;;;;;9.88;2.80;;;17.90;1.00;;;;;;5091925;28;20208;-79
2022/10/16 12:03:51;;;;;;;10.82;2.63;;;17.90;1.00;;;;;;5093636;28;20287;-81
2022/10/16 12:06:31;;;;;;;6.35;1.92;;;17.90;1.00;;;;;;5078852;28;20238;-83
2022/10/16 12:09:01;;;;;;;13.05;2.83;;;17.90;1.00;;;;;;5084948;28;20239;-80
2022/10/16 12:11:37;;;;;;;12.82;2.35;;;18.00;14.50;;;;;;5087960;28;20279;-81
2022/10/16 12:14:22;;;;;;;10.43;2.10;;;18.20;1.00;;;;;;5083129;28;20226;-79
2022/10/16 12:16:55;;;;;;;8.40;2.03;;;18.20;1.00;;;;;;5092839;28;20208;-84
2022/10/16 12:19:26;;;;;;;7.82;1.80;;;18.40;1.00;;;;;;5081448;28;20233;-77
2022/10/16 12:21:57;;;;;;;9.98;2.78;;;18.50;1.00;;;;;;5091033;28;20279;-78
2022/10/16 12:24:33;;;;;;;8.95;2.40;;;18.60;1.00;;;;;;5092401;28;20224;-81
2022/10/16 12:27:01;;;;;;;7.55;2.08;;;18.70;1.00;;;;;;5094121;28;20240;-90
2022/10/16 12:29:34;;;;;;;8.30;1.80;;;18.70;1.00;;;;;;5095660;28;20212;-90
2022/10/16 12:32:04;;;;;;;9.80;1.73;;;18.80;1.00;;;;;;5095219;28;20224;-94
2022/10/16 12:34:38;;;;;;;8.40;2.00;;;18.80;1.00;;;;;;5094343;28;20236;-77
2022/10/16 12:37:21;;;;;;;9.25;2.03;;;18.80;1.00;;;;;;5095364;28;20299;-88
2022/10/16 12:39:50;;;;;;;8.45;2.88;;;18.90;1.00;;;;;;5094274;28;20195;-86
2022/10/16 12:42:24;;;;;;;6.75;2.00;;;18.80;1.00;;;;;;5093194;28;20200;-87
2022/10/16 12:44:51;;;;;;;11.45;2.55;;;18.90;1.00;;;;;;5081615;28;20209;-85
2022/10/16 12:47:22;;;;;;;13.68;2.97;;;18.90;1.00;;;;;;5091542;28;20199;-86
2022/10/16 12:49:51;;;;;;;9.20;2.95;;;18.90;1.00;;;;;;5089312;28;20210;-85
2022/10/16 12:52:28;;;;;;;8.85;2.53;;;18.80;1.00;;;;;;5091169;28;20212;-85
2022/10/16 12:55:00;;;;;;;9.10;1.98;;;18.80;1.00;;;;;;5094097;28;20199;-83
2022/10/16 12:57:40;;;;;;;11.27;2.75;;;18.70;1.00;;;;;;5094260;28;20212;-86
2022/10/16 13:00:18;;;;;;;6.05;2.00;;;18.80;1.00;;;;;;5093890;28;20596;-81